Time;durP1;ratioP1;P1;durP2;ratioP2;P2;SDS_P1;SDS_P2;PMS_P1;PMS_P2;Temp;Humidity;BMP_temperature;BMP_pressure;BME280_temperature;BME280_humidity;BME280_pressure;Samples;Min_cycle;Max_cycle;Signal;HPM_P1;HPM_P2
2022/11/26 00:00:53;;;;;;;25.08;12.50;;;7.80;99.90;;;;;;5097416;28;20086;-68
2022/11/26 00:03:20;;;;;;;36.53;13.68;;;7.80;99.90;;;;;;5097849;28;20077;-69
2022/11/26 00:05:51;;;;;;;27.48;13.30;;;7.90;99.90;;;;;;5078841;28;20031;-69
2022/11/26 00:08:20;;;;;;;38.67;13.57;;;7.90;99.90;;;;;;5097463;28;20039;-68
2022/11/26 00:10:50;;;;;;;39.38;13.13;;;7.90;99.90;;;;;;5097508;28;20024;-70
2022/11/26 00:13:22;;;;;;;30.48;13.55;;;7.90;99.90;;;;;;5097137;28;20103;-68
2022/11/26 00:15:50;;;;;;;28.95;12.60;;;7.90;99.90;;;;;;5097673;28;20027;-68
2022/11/26 00:18:18;;;;;;;30.55;13.68;;;7.90;99.90;;;;;;5097184;28;20046;-68
2022/11/26 00:20:50;;;;;;;31.67;13.35;;;7.90;99.90;;;;;;5097607;28;20015;-68
2022/11/26 00:23:24;;;;;;;35.40;13.77;;;7.80;99.90;;;;;;5097582;28;20024;-68
2022/11/26 00:26:00;;;;;;;36.03;12.88;;;7.90;99.90;;;;;;5079008;28;20118;-68
2022/11/26 00:28:31;;;;;;;28.77;11.55;;;7.90;99.90;;;;;;5097165;28;20071;-68
2022/11/26 00:31:00;;;;;;;43.08;12.43;;;7.90;99.90;;;;;;5097462;28;20020;-69
2022/11/26 00:33:29;;;;;;;34.80;13.52;;;7.90;99.90;;;;;;5096741;28;20025;-68
2022/11/26 00:36:07;;;;;;;33.67;12.93;;;7.90;99.90;;;;;;5097398;28;20023;-68
2022/11/26 00:38:34;;;;;;;26.50;13.38;;;7.90;99.90;;;;;;5080459;28;20350;-68
2022/11/26 00:41:01;;;;;;;31.60;12.65;;;7.90;99.90;;;;;;5097564;28;20150;-68
2022/11/26 00:43:29;;;;;;;36.65;12.65;;;7.90;99.90;;;;;;5096790;28;20424;-68
2022/11/26 00:45:56;;;;;;;27.98;13.02;;;7.90;99.90;;;;;;5078774;28;20328;-69
2022/11/26 00:48:24;;;;;;;43.55;16.10;;;7.90;99.90;;;;;;5096741;28;20354;-69
2022/11/26 00:50:51;;;;;;;39.60;16.10;;;7.90;99.90;;;;;;5078727;28;20115;-68
2022/11/26 00:53:23;;;;;;;36.58;13.32;;;7.90;99.90;;;;;;5097170;28;20033;-68
2022/11/26 00:55:50;;;;;;;27.80;13.45;;;7.90;99.90;;;;;;5097175;28;20027;-69
2022/11/26 00:58:30;;;;;;;35.97;15.23;;;7.90;99.90;;;;;;5096711;28;20432;-68
2022/11/26 01:00:59;;;;;;;47.58;14.77;;;7.90;99.90;;;;;;5078637;28;20035;-68
2022/11/26 01:03:26;;;;;;;26.92;13.57;;;7.90;99.90;;;;;;5096537;28;20028;-69
2022/11/26 01:05:56;;;;;;;32.83;11.95;;;7.90;99.90;;;;;;5096789;28;20077;-68
2022/11/26 01:08:36;;;;;;;36.42;13.20;;;7.90;99.90;;;;;;5097216;28;20020;-68
2022/11/26 01:11:04;;;;;;;33.60;13.27;;;7.90;99.90;;;;;;5096997;28;20025;-68
2022/11/26 01:13:32;;;;;;;41.65;14.25;;;7.90;99.90;;;;;;5096404;28;20069;-68
2022/11/26 01:16:01;;;;;;;32.80;13.02;;;7.90;99.90;;;;;;5097156;28;20104;-68
2022/11/26 01:18:34;;;;;;;36.55;12.90;;;7.90;99.90;;;;;;5100589;28;20099;-68
2022/11/26 01:21:01;;;;;;;35.97;13.93;;;7.80;99.90;;;;;;5082487;28;20089;-68
2022/11/26 01:23:28;;;;;;;29.23;12.32;;;7.80;99.90;;;;;;5100987;28;20024;-68
2022/11/26 01:25:55;;;;;;;27.23;13.55;;;7.80;99.90;;;;;;5100947;28;20024;-68
2022/11/26 01:28:23;;;;;;;29.48;13.70;;;7.90;99.90;;;;;;5101011;28;20016;-68
2022/11/26 01:30:50;;;;;;;33.55;12.77;;;7.80;99.90;;;;;;5100563;28;20321;-68
2022/11/26 01:33:18;;;;;;;39.42;13.27;;;7.80;99.90;;;;;;5100665;28;20047;-68
2022/11/26 01:35:45;;;;;;;37.35;12.27;;;7.80;99.90;;;;;;5100756;28;20308;-68
2022/11/26 01:38:14;;;;;;;30.40;12.07;;;7.80;99.90;;;;;;5100842;28;20066;-68
2022/11/26 01:40:54;;;;;;;33.35;13.35;;;7.80;99.90;;;;;;5100129;28;20108;-68
2022/11/26 01:43:33;;;;;;;25.25;11.27;;;7.80;99.90;;;;;;5082065;28;20105;-68
2022/11/26 01:46:00;;;;;;;28.42;10.50;;;7.80;99.90;;;;;;5100531;28;20023;-68
2022/11/26 01:48:32;;;;;;;33.47;10.88;;;7.80;99.90;;;;;;5100632;28;20029;-68
2022/11/26 01:51:03;;;;;;;25.30;10.68;;;7.80;99.90;;;;;;5099833;28;20032;-68
2022/11/26 01:53:47;;;;;;;27.05;10.98;;;7.80;99.90;;;;;;5100329;28;20107;-68
2022/11/26 01:56:39;;;;;;;35.22;10.88;;;7.80;99.90;;;;;;5100371;28;20050;-68
2022/11/26 01:59:11;;;;;;;31.70;12.27;;;7.80;99.90;;;;;;5080186;28;20024;-68
2022/11/26 02:01:39;;;;;;;27.88;10.50;;;7.80;99.90;;;;;;5079973;28;20024;-68
2022/11/26 02:04:24;;;;;;;31.80;10.32;;;7.80;99.90;;;;;;5079876;28;20104;-68
2022/11/26 02:06:54;;;;;;;29.47;10.50;;;7.70;99.90;;;;;;5061649;28;20316;-68
2022/11/26 02:09:24;;;;;;;29.45;10.35;;;7.70;99.90;;;;;;5079453;28;20408;-68
2022/11/26 02:11:51;;;;;;;26.25;10.00;;;7.70;99.90;;;;;;5079702;28;20024;-68
2022/11/26 02:14:24;;;;;;;40.38;11.15;;;7.70;99.90;;;;;;5079723;28;20017;-68
2022/11/26 02:17:19;;;;;;;38.42;11.43;;;7.70;99.90;;;;;;5079690;28;20044;-68
2022/11/26 02:20:15;;;;;;;27.83;11.75;;;7.70;99.90;;;;;;5078541;28;20032;-68
2022/11/26 02:23:11;;;;;;;35.05;13.23;;;7.70;99.90;;;;;;5079045;28;20027;-68
2022/11/26 02:25:54;;;;;;;36.28;12.13;;;7.70;99.90;;;;;;5079425;28;20032;-69
2022/11/26 02:28:45;;;;;;;35.85;14.00;;;7.70;99.90;;;;;;5079002;28;20446;-68
2022/11/26 02:31:17;;;;;;;42.47;13.68;;;7.70;99.90;;;;;;5079372;28;20032;-68
2022/11/26 02:34:08;;;;;;;33.70;12.73;;;7.70;99.90;;;;;;5079296;28;20024;-68
2022/11/26 02:36:42;;;;;;;39.35;13.88;;;7.70;99.90;;;;;;5079097;28;20024;-68
2022/11/26 02:39:16;;;;;;;43.22;14.15;;;7.70;99.90;;;;;;5079292;28;20396;-68
2022/11/26 02:41:53;;;;;;;36.17;14.57;;;7.70;99.90;;;;;;5079219;28;20075;-68
2022/11/26 02:44:33;;;;;;;34.95;14.35;;;7.70;99.90;;;;;;5079336;28;20031;-68
2022/11/26 02:47:11;;;;;;;35.55;12.85;;;7.70;99.90;;;;;;5078567;28;20074;-68
2022/11/26 02:49:40;;;;;;;32.63;12.75;;;7.70;99.90;;;;;;5078833;28;20055;-68
2022/11/26 02:52:14;;;;;;;34.60;11.18;;;7.70;99.90;;;;;;5078958;28;20024;-68
2022/11/26 02:54:43;;;;;;;33.25;14.18;;;7.60;99.90;;;;;;5078895;28;20104;-69
2022/11/26 02:57:15;;;;;;;41.30;13.77;;;7.60;99.90;;;;;;5084911;28;20350;-69
2022/11/26 02:59:42;;;;;;;29.55;11.57;;;7.60;99.90;;;;;;5099145;28;20168;-68
2022/11/26 03:02:39;;;;;;;33.67;12.13;;;7.60;99.90;;;;;;5098487;28;20031;-68
2022/11/26 03:05:10;;;;;;;32.00;12.18;;;7.60;99.90;;;;;;5098390;28;20562;-68
2022/11/26 03:07:37;;;;;;;29.63;11.65;;;7.60;99.90;;;;;;5098474;28;20028;-68
2022/11/26 03:10:06;;;;;;;41.17;15.32;;;7.60;99.90;;;;;;5080624;28;20065;-68
2022/11/26 03:12:33;;;;;;;30.48;12.23;;;7.60;99.90;;;;;;5098389;28;20034;-69
2022/11/26 03:15:00;;;;;;;30.25;13.38;;;7.60;99.90;;;;;;5080252;28;20031;-69
2022/11/26 03:17:28;;;;;;;42.55;14.80;;;7.60;99.90;;;;;;5098747;28;20030;-69
2022/11/26 03:19:56;;;;;;;29.85;12.05;;;7.50;99.90;;;;;;5098080;28;20016;-68
2022/11/26 03:22:23;;;;;;;41.72;15.60;;;7.50;99.90;;;;;;5098132;28;20027;-68
2022/11/26 03:24:50;;;;;;;47.15;14.70;;;7.50;99.90;;;;;;5080324;28;20024;-68
2022/11/26 03:27:18;;;;;;;33.53;13.63;;;7.50;99.90;;;;;;5080085;28;20060;-68
2022/11/26 03:29:45;;;;;;;36.28;14.15;;;7.50;99.90;;;;;;5098290;28;20028;-68
2022/11/26 03:32:12;;;;;;;33.30;12.40;;;7.50;99.90;;;;;;5098167;28;20027;-68
2022/11/26 03:34:41;;;;;;;37.05;14.07;;;7.50;99.90;;;;;;5079937;28;20030;-68
2022/11/26 03:37:09;;;;;;;34.38;12.15;;;7.50;99.90;;;;;;5097804;28;20446;-68
2022/11/26 03:39:36;;;;;;;34.78;13.93;;;7.50;99.90;;;;;;5097751;28;20027;-69
2022/11/26 03:42:04;;;;;;;37.20;13.55;;;7.50;99.90;;;;;;5097814;28;20061;-68
2022/11/26 03:44:31;;;;;;;29.40;11.57;;;7.50;99.90;;;;;;5098311;28;20020;-69
2022/11/26 03:46:59;;;;;;;29.45;12.57;;;7.50;99.90;;;;;;5097679;28;20055;-68
2022/11/26 03:49:26;;;;;;;34.58;13.10;;;7.50;99.90;;;;;;5098000;28;20305;-68
2022/11/26 03:51:53;;;;;;;34.83;11.73;;;7.50;99.90;;;;;;5097548;28;20020;-68
2022/11/26 03:54:20;;;;;;;32.78;11.55;;;7.40;99.90;;;;;;5097521;28;20031;-69
2022/11/26 03:56:48;;;;;;;31.38;12.20;;;7.40;99.90;;;;;;5097349;28;20044;-69
2022/11/26 03:59:15;;;;;;;30.33;11.77;;;7.40;99.90;;;;;;5098179;28;20020;-69
2022/11/26 04:01:42;;;;;;;36.20;13.80;;;7.30;99.90;;;;;;5097380;28;20042;-68
2022/11/26 04:04:09;;;;;;;29.67;13.65;;;7.30;99.90;;;;;;5097656;28;20020;-68
2022/11/26 04:06:37;;;;;;;31.50;13.13;;;7.30;99.90;;;;;;5097866;28;20134;-69
2022/11/26 04:09:04;;;;;;;29.52;11.65;;;7.20;99.90;;;;;;5097463;28;20066;-68
2022/11/26 04:11:32;;;;;;;30.58;11.77;;;7.20;99.90;;;;;;5097832;28;20016;-68
2022/11/26 04:13:59;;;;;;;37.15;13.40;;;7.20;99.90;;;;;;5097161;28;20028;-69
2022/11/26 04:16:27;;;;;;;30.17;13.75;;;7.20;99.90;;;;;;5097152;28;20012;-68
2022/11/26 04:18:54;;;;;;;50.08;14.40;;;7.20;99.90;;;;;;5097242;28;20070;-69
2022/11/26 04:21:22;;;;;;;36.50;13.88;;;7.20;99.90;;;;;;5097618;28;20050;-69
2022/11/26 04:23:49;;;;;;;38.92;13.90;;;7.10;99.90;;;;;;5097643;28;20400;-68
2022/11/26 04:26:17;;;;;;;36.58;12.60;;;7.10;99.90;;;;;;5079086;28;20462;-69
2022/11/26 04:28:44;;;;;;;42.65;14.82;;;7.20;99.90;;;;;;5097151;28;20074;-68
2022/11/26 04:31:11;;;;;;;37.97;15.43;;;7.20;99.90;;;;;;5096909;28;20026;-69
2022/11/26 04:33:39;;;;;;;41.13;13.90;;;7.20;99.90;;;;;;5096767;28;20028;-69
2022/11/26 04:36:06;;;;;;;45.15;14.50;;;7.20;99.90;;;;;;5097109;28;20016;-69
2022/11/26 04:38:33;;;;;;;46.05;14.57;;;7.20;99.90;;;;;;5097360;28;20016;-68
2022/11/26 04:41:01;;;;;;;45.50;15.65;;;7.20;99.90;;;;;;5078844;28;20477;-69
2022/11/26 04:43:28;;;;;;;37.45;12.82;;;7.20;99.90;;;;;;5096893;28;20054;-69
2022/11/26 04:45:55;;;;;;;42.72;13.13;;;7.10;99.90;;;;;;5097474;28;20059;-69
2022/11/26 04:48:22;;;;;;;37.05;15.50;;;7.10;99.90;;;;;;5078684;28;20050;-68
2022/11/26 04:50:50;;;;;;;42.60;14.68;;;7.10;99.90;;;;;;5078523;28;20042;-69
2022/11/26 04:53:20;;;;;;;47.08;17.10;;;7.10;99.90;;;;;;5079609;28;20363;-68
2022/11/26 04:55:52;;;;;;;48.42;14.52;;;7.10;99.90;;;;;;5096742;28;20020;-69
2022/11/26 04:58:20;;;;;;;47.95;14.15;;;7.10;99.90;;;;;;5096687;28;20055;-69
2022/11/26 05:00:48;;;;;;;37.40;13.32;;;7.10;99.90;;;;;;5097117;28;20366;-69
2022/11/26 05:03:15;;;;;;;38.50;13.35;;;7.10;99.90;;;;;;5097069;28;20432;-69
2022/11/26 05:05:43;;;;;;;42.85;15.10;;;7.20;99.90;;;;;;5097064;28;20377;-68
2022/11/26 05:08:10;;;;;;;33.03;11.35;;;7.20;99.90;;;;;;5097227;28;20020;-68
2022/11/26 05:10:38;;;;;;;34.90;11.88;;;7.20;99.90;;;;;;5078570;28;20027;-68
2022/11/26 05:13:05;;;;;;;37.40;12.48;;;7.20;99.90;;;;;;5096433;28;20024;-69
2022/11/26 05:15:33;;;;;;;32.13;10.93;;;7.20;99.90;;;;;;5097000;28;20099;-68
2022/11/26 05:18:01;;;;;;;33.50;12.43;;;7.20;99.90;;;;;;5096829;28;20312;-69
2022/11/26 05:20:28;;;;;;;37.78;12.18;;;7.20;99.90;;;;;;5096323;28;20020;-69
2022/11/26 05:22:56;;;;;;;32.92;10.18;;;7.20;99.90;;;;;;5096467;28;20129;-69
2022/11/26 05:25:23;;;;;;;37.70;12.43;;;7.20;99.90;;;;;;5096653;28;20024;-69
2022/11/26 05:27:50;;;;;;;38.35;11.10;;;7.20;99.90;;;;;;5097071;28;20105;-69
2022/11/26 05:30:18;;;;;;;36.28;11.65;;;7.10;99.90;;;;;;5096319;28;20434;-69
2022/11/26 05:32:45;;;;;;;35.28;10.50;;;7.10;99.90;;;;;;5096195;28;20078;-69
2022/11/26 05:35:13;;;;;;;35.60;11.60;;;7.20;99.90;;;;;;5096177;28;20016;-69
2022/11/26 05:37:40;;;;;;;44.80;12.95;;;7.20;99.90;;;;;;5096719;28;20016;-69
2022/11/26 05:40:08;;;;;;;35.65;12.05;;;7.20;99.90;;;;;;5096209;28;20078;-68
2022/11/26 05:42:36;;;;;;;31.40;12.23;;;7.20;99.90;;;;;;5096179;28;20412;-68
2022/11/26 05:45:04;;;;;;;40.90;11.90;;;7.10;99.90;;;;;;5096157;28;20031;-69
2022/11/26 05:47:33;;;;;;;38.08;12.70;;;7.20;99.90;;;;;;5078402;28;20024;-69
2022/11/26 05:50:01;;;;;;;35.40;14.07;;;7.20;99.90;;;;;;5096084;28;20050;-69
2022/11/26 05:52:28;;;;;;;38.65;12.52;;;7.10;99.90;;;;;;5096096;28;20016;-69
2022/11/26 05:54:56;;;;;;;36.88;12.75;;;7.20;99.90;;;;;;5096635;28;20420;-69
2022/11/26 05:57:23;;;;;;;37.92;13.65;;;7.10;99.90;;;;;;5096208;28;20051;-69
2022/11/26 05:59:50;;;;;;;35.72;12.90;;;7.10;99.90;;;;;;5096593;28;20016;-69
2022/11/26 06:02:17;;;;;;;36.03;11.95;;;7.20;99.90;;;;;;5096637;28;20028;-69
2022/11/26 06:04:45;;;;;;;35.92;14.20;;;7.10;99.90;;;;;;5081606;28;20067;-69
2022/11/26 06:07:12;;;;;;;49.90;13.18;;;7.20;99.90;;;;;;5100156;28;20027;-69
2022/11/26 06:09:39;;;;;;;37.35;13.27;;;7.10;99.90;;;;;;5081603;28;20055;-68
2022/11/26 06:12:06;;;;;;;46.72;13.82;;;7.20;99.90;;;;;;5099719;28;20021;-69
2022/11/26 06:14:34;;;;;;;37.75;12.57;;;7.20;99.90;;;;;;5081469;28;20346;-69
2022/11/26 06:17:02;;;;;;;37.53;12.60;;;7.10;99.90;;;;;;5099440;28;20016;-69
2022/11/26 06:19:29;;;;;;;34.10;11.98;;;7.10;99.90;;;;;;5099869;28;20035;-69
2022/11/26 06:21:56;;;;;;;34.65;12.60;;;7.10;99.90;;;;;;5099887;28;20020;-69
2022/11/26 06:24:24;;;;;;;39.53;13.77;;;7.10;99.90;;;;;;5081506;28;20052;-69
2022/11/26 06:26:51;;;;;;;35.08;12.32;;;7.10;99.90;;;;;;5099540;28;20054;-69
2022/11/26 06:29:18;;;;;;;32.55;11.55;;;7.10;99.90;;;;;;5099247;28;20016;-69
2022/11/26 06:31:45;;;;;;;38.67;13.85;;;7.10;99.90;;;;;;5099095;28;20313;-69
2022/11/26 06:34:14;;;;;;;42.00;13.65;;;7.10;99.90;;;;;;5081155;28;20043;-69
2022/11/26 06:36:42;;;;;;;43.10;14.98;;;7.10;99.90;;;;;;5099577;28;20020;-69
2022/11/26 06:39:10;;;;;;;36.97;13.88;;;7.00;99.90;;;;;;5099305;28;20024;-69
2022/11/26 06:41:38;;;;;;;44.03;13.45;;;7.00;99.90;;;;;;5098986;28;20020;-69
2022/11/26 06:44:05;;;;;;;55.67;15.70;;;7.00;99.90;;;;;;5099103;28;20055;-69
2022/11/26 06:46:34;;;;;;;43.70;14.43;;;6.90;99.90;;;;;;5098852;28;20024;-69
2022/11/26 06:49:06;;;;;;;52.83;13.93;;;7.00;99.90;;;;;;5098799;28;20070;-69
2022/11/26 06:51:34;;;;;;;49.28;14.15;;;7.00;99.90;;;;;;5098739;28;20032;-68
2022/11/26 06:54:01;;;;;;;45.50;15.60;;;6.90;99.90;;;;;;5098794;28;20028;-69
2022/11/26 06:56:28;;;;;;;55.30;15.18;;;6.90;99.90;;;;;;5080553;28;20119;-70
2022/11/26 06:58:58;;;;;;;44.42;14.40;;;6.90;99.90;;;;;;5098373;28;20048;-70
2022/11/26 07:01:26;;;;;;;45.47;14.32;;;7.00;99.90;;;;;;5080650;28;20451;-68
2022/11/26 07:03:54;;;;;;;40.72;15.05;;;6.90;99.90;;;;;;5098593;28;20078;-70
2022/11/26 07:06:24;;;;;;;53.95;15.68;;;7.00;99.90;;;;;;5098333;28;20332;-71
2022/11/26 07:08:52;;;;;;;52.40;15.23;;;7.00;99.90;;;;;;5098312;28;20033;-70
2022/11/26 07:11:21;;;;;;;44.22;14.95;;;7.00;99.90;;;;;;5098335;28;20020;-70
2022/11/26 07:13:48;;;;;;;40.80;14.63;;;6.90;99.90;;;;;;5098430;28;20438;-72
2022/11/26 07:16:15;;;;;;;38.67;14.75;;;7.00;99.90;;;;;;5080374;28;20416;-71
2022/11/26 07:18:48;;;;;;;41.83;13.45;;;7.00;99.90;;;;;;5098790;28;20026;-72
2022/11/26 07:21:16;;;;;;;42.70;15.20;;;7.00;99.90;;;;;;5098507;28;20316;-71
2022/11/26 07:23:43;;;;;;;49.13;15.77;;;7.00;99.90;;;;;;5098312;28;20024;-73
2022/11/26 07:26:12;;;;;;;50.17;15.05;;;7.10;99.90;;;;;;5099141;28;20145;-77
2022/11/26 07:28:40;;;;;;;43.78;14.63;;;7.10;99.90;;;;;;5098131;28;20430;-74
2022/11/26 07:31:11;;;;;;;42.13;14.45;;;7.10;99.90;;;;;;5080032;28;20032;-71
2022/11/26 07:33:38;;;;;;;44.92;15.52;;;7.10;99.90;;;;;;5098003;28;20031;-71
2022/11/26 07:36:11;;;;;;;47.13;15.20;;;7.10;99.90;;;;;;5079868;28;20481;-75
2022/11/26 07:38:38;;;;;;;43.08;13.95;;;7.10;99.90;;;;;;5097910;28;20020;-75
2022/11/26 07:41:10;;;;;;;44.97;15.80;;;7.00;99.90;;;;;;5098349;28;20017;-77
2022/11/26 07:43:39;;;;;;;38.20;13.82;;;7.00;99.90;;;;;;5098232;28;20027;-83
2022/11/26 07:46:08;;;;;;;41.95;15.10;;;7.00;99.90;;;;;;5079689;28;20031;-74
2022/11/26 07:48:38;;;;;;;46.20;15.55;;;7.00;99.90;;;;;;5097614;28;20028;-76
2022/11/26 07:51:15;;;;;;;39.28;14.30;;;7.00;99.90;;;;;;5097632;28;20462;-72
2022/11/26 07:53:42;;;;;;;42.22;15.23;;;7.00;99.90;;;;;;5098466;28;20363;-72
2022/11/26 07:56:09;;;;;;;49.95;17.00;;;7.00;99.90;;;;;;5097775;28;20032;-75
2022/11/26 07:58:37;;;;;;;47.80;16.48;;;7.00;99.90;;;;;;5097406;28;20117;-77
2022/11/26 08:01:13;;;;;;;55.97;17.67;;;7.00;99.90;;;;;;5079436;28;20324;-76
2022/11/26 08:03:44;;;;;;;52.55;18.35;;;7.00;99.90;;;;;;5079501;28;20074;-74
2022/11/26 08:06:18;;;;;;;54.40;19.92;;;7.10;99.90;;;;;;5097615;28;20031;-73
2022/11/26 08:08:46;;;;;;;48.75;17.90;;;7.00;99.90;;;;;;5097366;28;20016;-74
2022/11/26 08:11:19;;;;;;;47.80;18.05;;;7.10;99.90;;;;;;5097247;28;20024;-75
2022/11/26 08:13:47;;;;;;;54.67;19.75;;;7.10;99.90;;;;;;5097321;28;20052;-74
2022/11/26 08:16:15;;;;;;;51.45;17.40;;;7.10;99.90;;;;;;5079188;28;20363;-72
2022/11/26 08:18:42;;;;;;;49.42;18.45;;;7.10;99.90;;;;;;5097310;28;20020;-72
2022/11/26 08:21:10;;;;;;;47.28;19.17;;;7.20;99.90;;;;;;5097092;28;20016;-73
2022/11/26 08:23:37;;;;;;;52.80;19.45;;;7.20;99.90;;;;;;5079265;28;20051;-72
2022/11/26 08:26:13;;;;;;;66.78;21.80;;;7.20;99.90;;;;;;5078624;28;20032;-72
2022/11/26 08:28:42;;;;;;;49.95;17.33;;;7.20;99.90;;;;;;5097083;28;20443;-71
2022/11/26 08:31:12;;;;;;;44.42;17.58;;;7.20;99.90;;;;;;5096912;28;20031;-71
2022/11/26 08:33:39;;;;;;;50.90;17.25;;;7.30;99.90;;;;;;5097498;28;20115;-71
2022/11/26 08:36:08;;;;;;;52.08;19.35;;;7.30;99.90;;;;;;5097210;28;20452;-71
2022/11/26 08:38:36;;;;;;;42.22;18.67;;;7.30;99.90;;;;;;5096876;28;20020;-71
2022/11/26 08:41:07;;;;;;;40.53;15.07;;;7.40;99.90;;;;;;5097335;28;20049;-70
2022/11/26 08:43:35;;;;;;;35.08;13.60;;;7.40;99.90;;;;;;5096986;28;20107;-74
2022/11/26 08:46:02;;;;;;;39.20;15.70;;;7.50;99.90;;;;;;5097023;28;20157;-71
2022/11/26 08:48:30;;;;;;;33.83;15.05;;;7.50;99.90;;;;;;5078815;28;20036;-71
2022/11/26 08:51:05;;;;;;;42.17;15.05;;;7.60;99.90;;;;;;5078801;28;20031;-70
2022/11/26 08:53:34;;;;;;;39.08;14.30;;;7.60;99.90;;;;;;5096792;28;20027;-70
2022/11/26 08:56:06;;;;;;;41.83;15.25;;;7.70;99.90;;;;;;5097178;28;20030;-70
2022/11/26 08:58:35;;;;;;;36.90;13.30;;;7.70;99.90;;;;;;5096433;28;20044;-71
2022/11/26 09:01:14;;;;;;;42.88;15.52;;;7.70;99.90;;;;;;5096613;28;20354;-70
2022/11/26 09:03:42;;;;;;;39.60;15.18;;;7.80;99.90;;;;;;5078728;28;20327;-71
2022/11/26 09:06:10;;;;;;;46.20;18.50;;;7.80;99.90;;;;;;5097132;28;20028;-70
2022/11/26 09:11:25;;;;;;;39.95;14.98;;;7.80;99.90;;;;;;5096553;28;20446;-70
2022/11/26 09:13:54;;;;;;;38.22;16.50;;;7.90;99.90;;;;;;5078690;28;20036;-70
2022/11/26 09:16:22;;;;;;;49.20;14.48;;;7.90;99.90;;;;;;5096478;28;20022;-70
2022/11/26 09:18:50;;;;;;;39.55;16.60;;;7.90;99.90;;;;;;5078496;28;20480;-71
2022/11/26 09:21:18;;;;;;;41.30;15.95;;;7.90;99.90;;;;;;5096965;28;20024;-70
2022/11/26 09:23:46;;;;;;;52.53;15.30;;;8.00;99.90;;;;;;5096577;28;20035;-73
2022/11/26 09:26:13;;;;;;;31.77;13.85;;;8.00;99.90;;;;;;5078373;28;20459;-71
2022/11/26 09:28:41;;;;;;;32.20;12.90;;;8.00;99.90;;;;;;5096328;28;20031;-72
2022/11/26 09:31:09;;;;;;;32.45;14.52;;;8.00;99.90;;;;;;5096364;28;20028;-71
2022/11/26 09:33:37;;;;;;;28.90;12.40;;;8.00;99.90;;;;;;5096666;28;20025;-71
2022/11/26 09:36:12;;;;;;;35.28;13.30;;;8.00;99.90;;;;;;5096288;28;20095;-71
2022/11/26 09:38:41;;;;;;;36.08;14.65;;;8.00;99.90;;;;;;5099236;28;20073;-74
2022/11/26 09:41:22;;;;;;;39.97;13.20;;;8.10;99.90;;;;;;5100160;28;20408;-67
2022/11/26 09:44:17;;;;;;;33.97;13.60;;;8.10;99.90;;;;;;5100773;28;20095;-67
2022/11/26 09:47:21;;;;;;;34.70;14.80;;;8.10;99.90;;;;;;5082029;28;20436;-67
2022/11/26 09:50:12;;;;;;;36.65;15.05;;;8.10;99.90;;;;;;5100014;28;20035;-68
2022/11/26 09:53:24;;;;;;;38.38;15.35;;;8.10;99.90;;;;;;5100167;28;20035;-67
2022/11/26 09:55:55;;;;;;;28.45;13.18;;;8.20;99.90;;;;;;5100171;28;20471;-68
2022/11/26 09:58:58;;;;;;;38.85;13.30;;;8.20;99.90;;;;;;5099641;28;20058;-68
2022/11/26 10:01:26;;;;;;;29.58;13.07;;;8.40;99.90;;;;;;5099788;28;20031;-67
2022/11/26 10:03:55;;;;;;;34.30;12.65;;;8.40;99.90;;;;;;5081862;28;20035;-67
2022/11/26 10:06:35;;;;;;;35.90;15.90;;;8.50;99.90;;;;;;5099688;28;20035;-67
2022/11/26 10:09:29;;;;;;;28.65;12.40;;;8.60;99.90;;;;;;5100293;28;20431;-68
2022/11/26 10:12:21;;;;;;;37.90;14.85;;;8.70;99.90;;;;;;5099882;28;20024;-67
2022/11/26 10:15:00;;;;;;;27.60;12.70;;;8.70;99.90;;;;;;5099830;28;20035;-68
2022/11/26 10:17:34;;;;;;;28.40;13.35;;;8.80;99.90;;;;;;5099670;28;20019;-68
2022/11/26 10:20:25;;;;;;;32.28;13.27;;;8.80;99.90;;;;;;5081394;28;20028;-68
2022/11/26 10:23:13;;;;;;;27.30;13.05;;;8.90;99.90;;;;;;5099737;28;20023;-68
2022/11/26 10:25:48;;;;;;;35.28;14.82;;;9.00;99.90;;;;;;5099852;28;20352;-68
2022/11/26 10:28:33;;;;;;;51.60;28.50;;;9.10;99.90;;;;;;5099437;28;20043;-67
2022/11/26 10:31:05;;;;;;;31.75;12.73;;;9.10;99.90;;;;;;5081220;28;20399;-67
2022/11/26 10:33:49;;;;;;;30.92;16.05;;;9.10;99.90;;;;;;5099045;28;20028;-68
2022/11/26 10:36:25;;;;;;;63.25;12.57;;;9.10;99.90;;;;;;5099092;28;20020;-68
2022/11/26 10:38:55;;;;;;;40.40;14.33;;;9.10;99.90;;;;;;5081134;28;20370;-67
2022/11/26 10:41:25;;;;;;;35.85;13.88;;;9.10;99.90;;;;;;5099538;28;20070;-67
2022/11/26 10:43:52;;;;;;;31.00;11.60;;;9.10;99.90;;;;;;5081096;28;20031;-68
2022/11/26 10:46:36;;;;;;;33.72;11.18;;;9.10;99.90;;;;;;5099491;28;20031;-68
2022/11/26 10:49:27;;;;;;;28.02;9.20;;;9.10;99.90;;;;;;5098406;28;20416;-68
2022/11/26 10:52:01;;;;;;;23.25;9.35;;;9.10;99.90;;;;;;5099581;28;20368;-68
2022/11/26 10:54:33;;;;;;;28.55;9.10;;;9.10;99.90;;;;;;5099320;28;20024;-67
2022/11/26 10:57:14;;;;;;;24.10;8.35;;;9.10;99.90;;;;;;5099251;28;20047;-67
2022/11/26 10:59:52;;;;;;;28.27;8.55;;;9.10;99.90;;;;;;5099246;28;20468;-67
2022/11/26 11:02:20;;;;;;;29.75;8.77;;;9.00;99.90;;;;;;5099323;28;20412;-68
2022/11/26 11:04:56;;;;;;;23.50;6.93;;;9.00;99.90;;;;;;5099079;28;20042;-67
2022/11/26 11:07:36;;;;;;;22.60;8.25;;;8.90;99.90;;;;;;5099099;28;20012;-68
2022/11/26 11:10:09;;;;;;;27.73;7.85;;;8.90;99.90;;;;;;5098373;28;20026;-68
2022/11/26 11:12:38;;;;;;;16.15;7.03;;;8.90;99.90;;;;;;5098925;28;20031;-67
2022/11/26 11:15:24;;;;;;;20.25;6.60;;;8.90;99.90;;;;;;5098424;28;20017;-68
2022/11/26 11:18:00;;;;;;;24.00;7.88;;;8.90;99.90;;;;;;5098653;28;20013;-68
2022/11/26 11:20:37;;;;;;;21.85;7.18;;;8.90;99.90;;;;;;5080516;28;20157;-68
2022/11/26 11:23:11;;;;;;;27.17;6.45;;;9.00;99.90;;;;;;5098263;28;20042;-68
2022/11/26 11:25:47;;;;;;;24.45;7.10;;;9.00;99.90;;;;;;5098256;28;20066;-68
2022/11/26 11:28:23;;;;;;;17.38;4.47;;;9.10;99.90;;;;;;5098459;28;20036;-68
2022/11/26 11:31:02;;;;;;;14.60;5.38;;;9.10;99.90;;;;;;5098293;28;20024;-67
2022/11/26 11:33:31;;;;;;;16.10;6.57;;;9.20;99.90;;;;;;5098428;28;20074;-67
2022/11/26 11:36:14;;;;;;;22.80;4.82;;;9.30;99.90;;;;;;5097969;28;20040;-67
2022/11/26 11:38:54;;;;;;;17.73;7.78;;;9.40;99.90;;;;;;5079994;28;20048;-67
2022/11/26 11:41:42;;;;;;;16.08;4.82;;;9.40;99.90;;;;;;5097856;28;20420;-70
2022/11/26 11:44:27;;;;;;;19.70;4.63;;;9.50;99.90;;;;;;5098041;28;20323;-69
2022/11/26 11:47:21;;;;;;;19.25;5.03;;;9.60;99.90;;;;;;5098468;28;20048;-69
2022/11/26 11:50:07;;;;;;;15.85;4.72;;;9.70;99.90;;;;;;5095793;28;20153;-69
2022/11/26 11:52:52;;;;;;;;;;;9.80;99.90;;;;;;5098617;28;20062;-65
2022/11/26 11:55:47;;;;;;;11.70;4.50;;;9.90;99.90;;;;;;5097852;28;19908;-69
2022/11/26 11:58:33;;;;;;;18.02;5.25;;;10.10;99.90;;;;;;5076134;28;20047;-69
2022/11/26 12:01:15;;;;;;;19.58;6.20;;;10.20;99.90;;;;;;5077019;28;20095;-71
2022/11/26 12:03:59;;;;;;;23.38;6.18;;;10.20;99.90;;;;;;5077557;28;20020;-72
2022/11/26 12:06:49;;;;;;;18.08;4.25;;;10.30;99.90;;;;;;5077643;28;20107;-72
2022/11/26 12:09:45;;;;;;;18.92;4.22;;;10.30;99.90;;;;;;5075975;28;20138;-73
2022/11/26 12:12:36;;;;;;;14.48;5.25;;;10.30;99.90;;;;;;5076937;28;20025;-73
2022/11/26 12:15:31;;;;;;;19.48;4.03;;;10.30;99.90;;;;;;5077207;28;20017;-71
2022/11/26 12:18:11;;;;;;;13.80;3.72;;;10.30;99.90;;;;;;5077052;28;20035;-70
2022/11/26 12:20:51;;;;;;;15.63;4.43;;;10.20;99.90;;;;;;5077391;28;20043;-69
2022/11/26 12:23:33;;;;;;;16.52;4.88;;;10.20;99.90;;;;;;5077359;28;20020;-70
2022/11/26 12:26:12;;;;;;;22.40;4.65;;;10.10;99.90;;;;;;5076743;28;20416;-71
2022/11/26 12:29:00;;;;;;;13.57;3.83;;;10.00;99.90;;;;;;5077020;28;20032;-70
2022/11/26 12:31:47;;;;;;;22.30;5.05;;;10.00;99.90;;;;;;5076743;28;20325;-70
2022/11/26 12:34:32;;;;;;;20.30;4.38;;;10.00;99.90;;;;;;5077050;28;20086;-68
2022/11/26 12:37:16;;;;;;;13.13;3.58;;;9.90;99.90;;;;;;5076700;28;20102;-70
2022/11/26 12:40:05;;;;;;;11.98;4.57;;;9.90;99.90;;;;;;5077092;28;20090;-74
2022/11/26 12:42:51;;;;;;;16.25;4.00;;;9.90;99.90;;;;;;5077278;28;20052;-70
2022/11/26 12:45:39;;;;;;;21.48;5.28;;;9.90;99.90;;;;;;5077089;28;20056;-71
2022/11/26 12:48:33;;;;;;;13.32;3.38;;;10.00;99.90;;;;;;5062647;28;20056;-71
2022/11/26 12:51:18;;;;;;;12.68;4.28;;;10.00;99.90;;;;;;5075439;28;20109;-70
2022/11/26 12:53:52;;;;;;;17.48;3.72;;;10.00;99.90;;;;;;5077122;28;20028;-69
2022/11/26 12:56:26;;;;;;;12.90;3.97;;;10.10;99.90;;;;;;5075365;28;20324;-67
2022/11/26 12:59:08;;;;;;;16.23;3.50;;;10.10;99.90;;;;;;5096410;28;20455;-67
2022/11/26 13:01:36;;;;;;;21.55;4.30;;;10.10;99.90;;;;;;5096613;28;20024;-67
2022/11/26 13:04:03;;;;;;;16.85;3.80;;;10.10;99.90;;;;;;5096599;28;20166;-68
2022/11/26 13:06:53;;;;;;;14.75;3.75;;;10.10;99.90;;;;;;5096556;28;20016;-67
2022/11/26 13:09:39;;;;;;;12.25;4.25;;;10.10;99.90;;;;;;5097031;28;20031;-69